松山國際航空站 - ATIS

METAR RCSS 120300Z 07011KT 040V100 9999 FEW025 SCT045 26/16 Q1018 NOSIG RMK A3006=

站台狀態:Offline
最後更新:2019-11-12 11:30:02